Time;durP1;ratioP1;P1;durP2;ratioP2;P2;SDS_P1;SDS_P2;PMS_P1;PMS_P2;Temp;Humidity;BMP_temperature;BMP_pressure;BME280_temperature;BME280_humidity;BME280_pressure;Samples;Min_cycle;Max_cycle;Signal;HPM_P1;HPM_P2
2021/09/19 13:35:20;;;;;;;0.52;0.47;;;20.10;82.00;;;;;;5151297;27;20191;-77
2021/09/19 13:37:46;;;;;;;0.43;0.43;;;20.00;83.60;;;;;;5094713;28;20134;-78
2021/09/19 13:40:12;;;;;;;0.65;0.65;;;20.00;85.70;;;;;;5111555;28;20487;-79
2021/09/19 13:42:38;;;;;;;0.90;0.75;;;20.00;87.40;;;;;;5077722;28;20085;-79
2021/09/19 13:45:05;;;;;;;1.15;0.88;;;20.10;88.60;;;;;;5112047;28;20078;-78
2021/09/19 13:47:31;;;;;;;0.70;0.70;;;20.10;89.30;;;;;;5112023;28;20480;-78
2021/09/19 13:49:56;;;;;;;1.33;0.90;;;20.20;89.80;;;;;;5111993;28;20040;-78
2021/09/19 13:52:22;;;;;;;1.63;1.20;;;20.20;90.00;;;;;;5094580;28;20382;-79
2021/09/19 13:54:48;;;;;;;1.30;1.20;;;20.20;90.00;;;;;;5077310;28;20485;-78
2021/09/19 13:57:13;;;;;;;0.93;0.90;;;20.20;90.00;;;;;;5111475;28;20048;-79
2021/09/19 13:59:39;;;;;;;1.38;1.05;;;20.20;90.10;;;;;;5094853;28;20039;-79
2021/09/19 14:02:05;;;;;;;1.63;1.15;;;20.20;90.10;;;;;;5077607;28;20084;-80
2021/09/19 14:04:30;;;;;;;1.17;1.00;;;20.20;90.10;;;;;;5111443;28;20051;-79
2021/09/19 14:06:56;;;;;;;0.80;0.80;;;20.30;90.10;;;;;;5092878;28;20120;-79
2021/09/19 14:09:22;;;;;;;0.80;0.80;;;20.30;90.00;;;;;;5111369;28;20062;-79
2021/09/19 14:11:48;;;;;;;0.95;0.90;;;20.40;89.90;;;;;;5111012;28;20128;-79
2021/09/19 14:14:15;;;;;;;0.70;0.70;;;20.50;89.70;;;;;;5093179;28;20047;-80
2021/09/19 14:16:40;;;;;;;0.77;0.77;;;20.50;89.50;;;;;;5092842;28;20124;-79
2021/09/19 14:19:06;;;;;;;0.80;0.80;;;20.40;89.30;;;;;;5094116;28;20505;-78
2021/09/19 14:21:34;;;;;;;1.00;0.90;;;20.50;89.30;;;;;;5110873;28;20117;-79
2021/09/19 14:24:01;;;;;;;0.95;0.70;;;20.40;89.20;;;;;;5117317;28;20099;-80
2021/09/19 14:26:27;;;;;;;0.75;0.75;;;20.40;89.20;;;;;;5105498;28;20036;-81
2021/09/19 14:28:53;;;;;;;0.75;0.75;;;20.40;89.20;;;;;;5129309;28;20031;-80
2021/09/19 14:31:19;;;;;;;1.10;0.80;;;20.30;89.00;;;;;;5106332;28;20409;-79
2021/09/19 14:33:44;;;;;;;1.20;1.10;;;20.30;89.10;;;;;;5146470;28;20039;-79
2021/09/19 14:36:10;;;;;;;1.00;0.90;;;20.30;89.00;;;;;;5123849;28;20035;-79
2021/09/19 14:38:37;;;;;;;1.10;1.00;;;20.20;88.80;;;;;;5122957;28;20107;-79
2021/09/19 14:41:03;;;;;;;1.00;0.90;;;20.20;88.80;;;;;;5122610;28;20095;-79
2021/09/19 14:43:36;;;;;;;0.70;0.70;;;20.20;88.90;;;;;;5098554;28;20074;-80
2021/09/19 14:46:03;;;;;;;0.75;0.73;;;20.10;89.40;;;;;;5125582;28;20047;-81
2021/09/19 14:48:56;;;;;;;0.93;0.93;;;20.10;88.80;;;;;;5082818;28;20040;-85
2021/09/19 14:51:22;;;;;;;0.82;0.82;;;20.10;88.60;;;;;;5078725;28;20047;-80
2021/09/19 14:57:55;;;;;;;0.60;0.60;;;20.00;88.50;;;;;;4977692;28;20066;-86
2021/09/19 15:00:21;;;;;;;0.70;0.70;;;19.90;88.40;;;;;;4944819;28;20050;-81
2021/09/19 15:02:49;;;;;;;0.65;0.65;;;20.00;88.50;;;;;;4957184;28;20422;-81
2021/09/19 15:05:17;;;;;;;0.60;0.60;;;19.90;88.30;;;;;;4958822;28;20053;-85
2021/09/19 15:07:43;;;;;;;1.15;0.90;;;19.90;88.30;;;;;;4959010;28;20043;-83
2021/09/19 15:10:10;;;;;;;0.88;0.80;;;19.90;88.20;;;;;;4945986;28;20138;-79
2021/09/19 15:12:36;;;;;;;0.60;0.60;;;19.80;88.10;;;;;;4981379;28;20146;-82
2021/09/19 15:15:03;;;;;;;0.70;0.70;;;19.90;88.00;;;;;;4979684;28;20105;-78
2021/09/19 15:17:30;;;;;;;0.63;0.63;;;19.90;87.80;;;;;;4981159;28;20043;-78
2021/09/19 15:19:56;;;;;;;0.88;0.60;;;20.00;87.70;;;;;;4962202;28;20051;-78
2021/09/19 15:22:21;;;;;;;0.65;0.47;;;19.90;87.40;;;;;;4981662;28;20544;-81
2021/09/19 15:24:49;;;;;;;0.50;0.50;;;20.00;87.40;;;;;;4981039;28;20859;-82
2021/09/19 15:27:18;;;;;;;0.55;0.55;;;19.90;87.30;;;;;;4993980;28;20145;-83
2021/09/19 15:30:16;;;;;;;0.60;0.60;;;20.00;87.20;;;;;;5078357;28;20037;-83
2021/09/19 15:33:20;;;;;;;1.25;0.70;;;19.90;87.10;;;;;;5015393;28;20394;-83
2021/09/19 15:35:53;;;;;;;0.47;0.47;;;19.80;86.90;;;;;;4950161;28;20123;-83
2021/09/19 15:38:25;;;;;;;0.60;0.60;;;19.80;87.00;;;;;;4894023;29;20036;-82
2021/09/19 15:41:54;;;;;;;0.60;0.60;;;19.80;87.00;;;;;;4892729;29;20048;-86
2021/09/19 15:48:42;;;;;;;0.50;0.50;;;19.60;86.90;;;;;;4852570;29;20037;-80
2021/09/19 15:51:09;;;;;;;0.65;0.40;;;19.60;86.90;;;;;;4856153;29;20480;-83
2021/09/19 15:53:39;;;;;;;0.60;0.43;;;19.60;87.00;;;;;;4859604;29;20058;-80
2021/09/19 15:56:07;;;;;;;0.47;0.47;;;19.60;86.90;;;;;;4877923;29;20403;-82
2021/09/19 15:58:59;;;;;;;0.50;0.50;;;19.60;86.70;;;;;;4881440;29;20092;-81
2021/09/19 16:01:25;;;;;;;0.77;0.65;;;19.60;86.60;;;;;;4934859;29;20615;-81
2021/09/19 16:04:03;;;;;;;0.60;0.40;;;19.70;86.50;;;;;;4958539;28;20047;-81
2021/09/19 16:06:34;;;;;;;0.50;0.50;;;19.60;86.30;;;;;;4950578;29;20383;-79
2021/09/19 16:09:00;;;;;;;0.40;0.40;;;19.60;86.20;;;;;;4933011;29;20081;-78
2021/09/19 16:11:28;;;;;;;0.38;0.38;;;19.60;86.10;;;;;;4940412;29;20103;-81
2021/09/19 16:13:54;;;;;;;0.52;0.50;;;19.60;86.00;;;;;;4953063;29;20520;-79
2021/09/19 16:16:22;;;;;;;0.60;0.50;;;19.50;86.00;;;;;;4951494;29;20043;-80
2021/09/19 16:18:48;;;;;;;1.27;0.50;;;19.50;86.10;;;;;;4953331;29;20047;-79
2021/09/19 16:21:16;;;;;;;1.10;0.57;;;19.40;86.10;;;;;;4953554;29;20055;-80
2021/09/19 16:23:42;;;;;;;0.75;0.75;;;19.40;86.10;;;;;;4924112;28;20067;-79
2021/09/19 16:26:08;;;;;;;0.85;0.70;;;19.30;86.10;;;;;;4975659;28;20156;-79
2021/09/19 16:28:34;;;;;;;0.70;0.70;;;19.20;86.10;;;;;;4977090;28;20172;-78
2021/09/19 16:31:00;;;;;;;0.60;0.60;;;19.20;86.20;;;;;;4994864;28;20143;-78
2021/09/19 16:33:25;;;;;;;0.80;0.80;;;19.00;86.10;;;;;;4994709;28;20076;-78
2021/09/19 16:35:52;;;;;;;0.55;0.55;;;19.00;86.20;;;;;;4978987;28;20111;-78
2021/09/19 16:38:17;;;;;;;0.68;0.68;;;18.90;86.20;;;;;;5046385;28;20123;-78
2021/09/19 16:40:43;;;;;;;0.50;0.50;;;18.90;86.30;;;;;;5086248;28;20182;-79
2021/09/19 16:43:10;;;;;;;1.95;0.63;;;18.80;86.30;;;;;;5095792;28;20053;-78
2021/09/19 16:45:36;;;;;;;0.50;0.50;;;18.80;86.40;;;;;;5077838;28;20122;-80
2021/09/19 16:48:03;;;;;;;0.60;0.60;;;18.70;86.40;;;;;;5094836;28;20067;-78
2021/09/19 16:50:28;;;;;;;0.60;0.60;;;18.60;86.30;;;;;;5078002;28;20126;-78
2021/09/19 16:52:54;;;;;;;0.60;0.60;;;18.60;86.40;;;;;;5094768;28;20573;-78
2021/09/19 16:55:20;;;;;;;0.57;0.57;;;18.60;86.40;;;;;;5094556;28;20040;-79
2021/09/19 16:57:46;;;;;;;0.50;0.50;;;18.60;86.40;;;;;;5095736;28;20043;-78
2021/09/19 17:00:16;;;;;;;0.60;0.60;;;18.50;86.00;;;;;;5095267;28;20028;-79
2021/09/19 17:02:42;;;;;;;0.40;0.40;;;18.40;86.30;;;;;;5092197;28;20028;-79
2021/09/19 17:05:08;;;;;;;0.40;0.40;;;18.40;86.30;;;;;;5093398;28;20098;-78
2021/09/19 17:07:34;;;;;;;0.45;0.45;;;18.40;86.40;;;;;;5113529;28;20058;-78
2021/09/19 17:10:00;;;;;;;0.52;0.52;;;18.40;86.40;;;;;;5077828;28;20473;-78
2021/09/19 17:12:26;;;;;;;0.80;0.50;;;18.30;86.30;;;;;;5095071;28;20055;-78
2021/09/19 17:14:52;;;;;;;0.50;0.50;;;18.30;86.30;;;;;;5113077;28;20173;-77
2021/09/19 17:17:17;;;;;;;0.40;0.40;;;18.30;86.30;;;;;;5113457;28;20038;-78
2021/09/19 17:19:43;;;;;;;0.40;0.40;;;18.20;86.10;;;;;;5078575;28;20027;-78
2021/09/19 17:22:09;;;;;;;0.88;0.60;;;18.20;86.10;;;;;;5119294;28;20043;-79
2021/09/19 17:24:35;;;;;;;0.60;0.60;;;18.20;86.10;;;;;;5081687;28;20047;-81
2021/09/19 17:27:29;;;;;;;0.40;0.40;;;18.10;86.10;;;;;;5094739;28;20044;-83
2021/09/19 17:30:12;;;;;;;0.30;0.30;;;18.00;86.00;;;;;;5096833;28;20050;-83
2021/09/19 17:32:43;;;;;;;0.30;0.30;;;18.00;86.10;;;;;;5079095;28;20560;-83
2021/09/19 17:35:13;;;;;;;0.70;0.50;;;18.00;86.10;;;;;;5070067;28;20143;-83
2021/09/19 17:37:39;;;;;;;0.50;0.50;;;17.90;86.10;;;;;;5036327;28;20064;-84
2021/09/19 17:40:08;;;;;;;0.60;0.40;;;17.80;86.10;;;;;;5069332;28;20068;-83
2021/09/19 17:42:35;;;;;;;0.30;0.30;;;17.80;86.10;;;;;;5068699;28;20072;-83
2021/09/19 17:45:02;;;;;;;0.47;0.45;;;17.80;86.10;;;;;;5053811;28;20129;-83
2021/09/19 17:47:27;;;;;;;0.25;0.25;;;17.70;86.10;;;;;;5036728;28;20044;-83
2021/09/19 17:49:53;;;;;;;0.68;0.50;;;17.60;86.00;;;;;;5053102;28;20522;-82
2021/09/19 17:52:19;;;;;;;0.57;0.40;;;17.60;86.00;;;;;;5053764;28;20036;-82
2021/09/19 17:54:45;;;;;;;0.40;0.40;;;17.60;86.00;;;;;;5053048;28;20052;-82
2021/09/19 17:57:10;;;;;;;0.50;0.45;;;17.60;86.00;;;;;;5054604;28;20083;-82
2021/09/19 17:59:39;;;;;;;0.35;0.35;;;17.50;86.00;;;;;;5053047;28;20052;-82
2021/09/19 18:02:05;;;;;;;0.43;0.40;;;17.50;86.00;;;;;;5051796;28;20044;-82
2021/09/19 18:04:30;;;;;;;0.75;0.50;;;17.40;86.00;;;;;;5067967;28;20044;-80
2021/09/19 18:06:56;;;;;;;0.40;0.40;;;17.30;86.10;;;;;;5057367;28;20134;-84
2021/09/19 18:09:25;;;;;;;0.30;0.30;;;17.30;86.10;;;;;;5114499;28;20050;-81
2021/09/19 18:11:50;;;;;;;0.40;0.40;;;17.30;86.10;;;;;;5094194;28;20031;-81
2021/09/19 18:14:17;;;;;;;0.75;0.60;;;17.20;86.10;;;;;;5095994;28;20482;-81
2021/09/19 18:16:42;;;;;;;0.63;0.63;;;17.20;86.00;;;;;;5062759;28;20100;-82
2021/09/19 18:19:08;;;;;;;0.45;0.45;;;17.20;86.00;;;;;;5079541;28;20457;-82
2021/09/19 18:21:37;;;;;;;0.50;0.50;;;17.00;85.90;;;;;;5079845;28;20032;-83
2021/09/19 18:24:04;;;;;;;0.50;0.50;;;17.00;85.90;;;;;;5080821;28;20046;-83
2021/09/19 18:26:31;;;;;;;0.40;0.40;;;17.00;85.90;;;;;;5083903;28;20089;-82
2021/09/19 18:28:57;;;;;;;0.47;0.47;;;17.00;86.00;;;;;;5080691;28;20131;-82
2021/09/19 18:31:26;;;;;;;0.60;0.60;;;16.80;85.90;;;;;;5080426;28;20156;-82
2021/09/19 18:33:52;;;;;;;0.50;0.50;;;16.90;86.00;;;;;;5069049;28;20039;-79
2021/09/19 18:36:31;;;;;;;0.50;0.50;;;16.90;86.00;;;;;;5116330;28;20050;-87
2021/09/19 18:38:59;;;;;;;0.75;0.60;;;16.80;85.90;;;;;;5083977;28;20082;-81
2021/09/19 18:41:25;;;;;;;0.60;0.60;;;16.80;85.90;;;;;;5102929;28;20036;-80
2021/09/19 18:43:54;;;;;;;0.40;0.40;;;16.80;85.90;;;;;;5063223;28;20039;-81
2021/09/19 18:46:29;;;;;;;0.85;0.80;;;16.80;85.90;;;;;;5097127;28;20043;-81
2021/09/19 18:48:55;;;;;;;0.70;0.60;;;16.70;85.80;;;;;;5072049;28;20051;-80
2021/09/19 18:51:23;;;;;;;0.73;0.57;;;16.70;85.90;;;;;;5039111;28;20049;-80
2021/09/19 18:53:49;;;;;;;0.98;0.60;;;16.60;85.90;;;;;;5055851;28;20179;-80
2021/09/19 18:56:15;;;;;;;0.63;0.63;;;16.60;86.60;;;;;;5039667;28;20546;-79
2021/09/19 18:58:40;;;;;;;0.50;0.50;;;16.50;86.00;;;;;;5055213;28;20040;-80
2021/09/19 19:01:07;;;;;;;0.65;0.65;;;16.50;86.10;;;;;;5040626;28;20123;-80
2021/09/19 19:03:33;;;;;;;1.10;0.70;;;16.50;86.10;;;;;;5055875;28;20044;-80
2021/09/19 19:05:59;;;;;;;0.85;0.68;;;16.40;86.10;;;;;;5074402;28;20576;-81
2021/09/19 19:08:25;;;;;;;0.52;0.52;;;16.40;86.20;;;;;;5067542;28;20067;-80
2021/09/19 19:10:51;;;;;;;0.52;0.52;;;16.30;86.10;;;;;;5055396;28;20049;-80
2021/09/19 19:13:18;;;;;;;0.65;0.60;;;16.40;86.20;;;;;;5055389;28;20055;-80
2021/09/19 19:15:44;;;;;;;0.60;0.60;;;16.30;86.20;;;;;;5072376;28;20040;-79
2021/09/19 19:18:10;;;;;;;0.73;0.73;;;16.20;86.20;;;;;;5074040;28;20040;-79
2021/09/19 19:20:36;;;;;;;0.95;0.73;;;16.20;86.30;;;;;;5089934;28;20054;-79
2021/09/19 19:23:04;;;;;;;1.30;0.60;;;16.10;86.20;;;;;;5079825;28;20382;-79
2021/09/19 19:25:30;;;;;;;1.08;0.90;;;16.10;86.30;;;;;;5080082;28;20051;-79
2021/09/19 19:27:57;;;;;;;1.00;0.70;;;16.10;86.30;;;;;;5097959;28;20501;-80
2021/09/19 19:30:24;;;;;;;1.00;0.70;;;16.00;86.30;;;;;;5080026;28;20174;-79
2021/09/19 19:32:50;;;;;;;0.60;0.60;;;16.00;86.30;;;;;;5079595;28;20047;-79
2021/09/19 19:35:16;;;;;;;0.85;0.70;;;15.90;86.30;;;;;;5096518;28;20481;-80
2021/09/19 19:37:43;;;;;;;0.57;0.57;;;15.90;86.30;;;;;;5116232;28;20043;-81
2021/09/19 19:40:19;;;;;;;0.68;0.68;;;15.80;86.40;;;;;;5080019;28;20051;-84
2021/09/19 19:42:48;;;;;;;0.68;0.55;;;15.80;86.40;;;;;;5080435;28;20396;-84
2021/09/19 19:45:14;;;;;;;0.80;0.75;;;15.70;86.50;;;;;;5080213;28;20074;-84
2021/09/19 19:47:40;;;;;;;0.82;0.73;;;15.70;86.50;;;;;;5096605;28;20067;-84
2021/09/19 19:50:07;;;;;;;0.80;0.60;;;15.70;86.50;;;;;;5057591;28;20032;-83
2021/09/19 19:55:46;;;;;;;0.80;0.80;;;15.50;86.40;;;;;;5072732;28;20075;-83
2021/09/19 19:58:42;;;;;;;0.70;0.60;;;15.50;86.50;;;;;;5058132;28;20040;-84
2021/09/19 20:01:09;;;;;;;0.73;0.70;;;15.40;86.50;;;;;;5059890;28;20051;-82
2021/09/19 20:03:40;;;;;;;0.50;0.50;;;15.40;86.50;;;;;;5060408;28;20493;-82
2021/09/19 20:06:06;;;;;;;0.85;0.80;;;15.40;86.60;;;;;;5041977;28;20064;-80
2021/09/19 20:08:33;;;;;;;0.60;0.60;;;15.30;86.70;;;;;;5074838;28;20116;-84
2021/09/19 20:11:02;;;;;;;0.80;0.60;;;15.30;86.70;;;;;;5076339;28;20048;-85
2021/09/19 20:13:40;;;;;;;0.80;0.60;;;15.20;86.70;;;;;;5073372;28;20114;-83
2021/09/19 20:16:18;;;;;;;0.75;0.70;;;15.20;86.80;;;;;;5076680;28;20048;-85
2021/09/19 20:18:55;;;;;;;0.82;0.68;;;15.10;86.80;;;;;;5052017;28;20036;-83
2021/09/19 20:21:23;;;;;;;0.98;0.55;;;15.00;86.80;;;;;;5024804;28;20036;-82
2021/09/19 20:23:51;;;;;;;0.85;0.70;;;15.00;86.90;;;;;;5055281;28;20036;-80
2021/09/19 20:26:18;;;;;;;0.85;0.55;;;15.00;87.00;;;;;;5072905;28;20564;-83
2021/09/19 20:28:58;;;;;;;0.88;0.70;;;14.90;86.90;;;;;;5040780;28;20032;-82
2021/09/19 20:31:27;;;;;;;0.60;0.50;;;14.80;86.80;;;;;;5063292;28;20044;-81
2021/09/19 20:33:59;;;;;;;1.88;0.70;;;14.80;86.80;;;;;;5010651;28;20056;-80
2021/09/19 20:36:31;;;;;;;0.50;0.50;;;14.80;86.80;;;;;;4993364;28;20144;-79
2021/09/19 20:39:00;;;;;;;1.20;0.80;;;14.80;86.80;;;;;;5014299;28;20048;-81
2021/09/19 20:41:26;;;;;;;0.57;0.57;;;14.80;86.80;;;;;;5019892;28;20049;-80
2021/09/19 20:43:53;;;;;;;0.55;0.47;;;14.70;86.70;;;;;;5029244;28;20455;-81
2021/09/19 20:46:19;;;;;;;0.65;0.52;;;14.70;86.80;;;;;;5034484;28;20049;-80
2021/09/19 20:48:45;;;;;;;0.80;0.70;;;14.70;86.70;;;;;;5018503;28;20045;-79
2021/09/19 20:51:11;;;;;;;0.60;0.60;;;14.60;86.70;;;;;;5034308;28;20048;-78
2021/09/19 20:53:42;;;;;;;0.52;0.52;;;14.60;86.70;;;;;;5033376;28;20080;-79
2021/09/19 20:56:09;;;;;;;0.57;0.57;;;14.60;86.70;;;;;;5018929;28;20036;-78
2021/09/19 20:58:36;;;;;;;0.63;0.50;;;14.60;86.70;;;;;;5050996;28;20139;-80
2021/09/19 21:01:02;;;;;;;0.47;0.47;;;14.50;86.70;;;;;;5017384;28;20490;-79
2021/09/19 21:03:28;;;;;;;0.85;0.60;;;14.50;86.70;;;;;;5033816;28;20068;-79
2021/09/19 21:06:03;;;;;;;0.68;0.55;;;14.50;86.80;;;;;;5074601;28;20055;-84
2021/09/19 21:08:29;;;;;;;0.57;0.50;;;14.50;86.80;;;;;;5099218;28;20047;-80
2021/09/19 21:10:55;;;;;;;0.63;0.52;;;14.40;86.70;;;;;;5078445;28;20523;-81
2021/09/19 21:13:22;;;;;;;0.38;0.35;;;14.40;86.80;;;;;;5095174;28;20039;-80
2021/09/19 21:15:48;;;;;;;0.47;0.47;;;14.40;86.80;;;;;;5095618;28;20036;-80
2021/09/19 21:18:13;;;;;;;0.70;0.57;;;14.40;86.80;;;;;;5078523;28;20031;-80
2021/09/19 21:20:39;;;;;;;0.88;0.57;;;14.40;86.80;;;;;;5061574;28;20035;-81
2021/09/19 21:23:06;;;;;;;0.50;0.47;;;14.20;86.80;;;;;;5078470;28;20043;-80
2021/09/19 21:25:32;;;;;;;0.50;0.50;;;14.30;86.90;;;;;;5078222;28;20430;-80
2021/09/19 21:27:59;;;;;;;0.70;0.60;;;14.30;86.90;;;;;;5113527;28;20053;-80
2021/09/19 21:30:25;;;;;;;0.90;0.57;;;14.20;86.90;;;;;;5113195;28;20136;-80
2021/09/19 21:32:52;;;;;;;0.45;0.45;;;14.20;87.00;;;;;;5113087;28;20039;-80
2021/09/19 21:35:17;;;;;;;0.60;0.60;;;14.10;87.00;;;;;;5094419;28;20126;-80
2021/09/19 21:37:44;;;;;;;0.75;0.68;;;14.10;87.00;;;;;;5094627;28;20481;-81
2021/09/19 21:40:12;;;;;;;1.20;0.50;;;14.10;87.00;;;;;;5077929;28;20031;-81
2021/09/19 21:42:39;;;;;;;0.43;0.43;;;14.10;87.00;;;;;;5078402;28;20040;-80
2021/09/19 21:45:05;;;;;;;0.77;0.50;;;14.10;87.00;;;;;;5095201;28;20067;-79
2021/09/19 21:47:31;;;;;;;0.68;0.63;;;14.10;87.00;;;;;;5113118;28;20402;-80
2021/09/19 21:49:57;;;;;;;0.75;0.68;;;14.10;87.00;;;;;;5094429;28;20051;-79
2021/09/19 21:52:24;;;;;;;0.98;0.70;;;14.00;86.90;;;;;;5077703;28;20074;-80
2021/09/19 21:54:50;;;;;;;0.95;0.80;;;14.00;86.90;;;;;;5077824;28;20405;-80
2021/09/19 21:57:16;;;;;;;0.40;0.40;;;14.00;86.90;;;;;;5116552;28;20081;-80
2021/09/19 21:59:42;;;;;;;0.70;0.70;;;14.00;86.80;;;;;;5098240;28;20227;-80
2021/09/19 22:02:09;;;;;;;1.27;0.70;;;14.00;86.80;;;;;;5081775;28;20036;-80
2021/09/19 22:04:35;;;;;;;0.80;0.60;;;14.00;86.80;;;;;;5116396;28;20056;-80
2021/09/19 22:07:01;;;;;;;0.50;0.50;;;14.00;86.80;;;;;;5097911;28;20040;-80
2021/09/19 22:09:27;;;;;;;0.60;0.50;;;13.90;86.80;;;;;;5097712;28;20050;-80
2021/09/19 22:14:38;;;;;;;0.70;0.60;;;13.90;86.70;;;;;;5088888;28;20027;-80
2021/09/19 22:17:06;;;;;;;0.57;0.57;;;13.90;86.80;;;;;;5097931;28;20036;-80
2021/09/19 22:19:32;;;;;;;2.33;0.68;;;13.80;86.80;;;;;;5118270;28;20036;-80
2021/09/19 22:21:59;;;;;;;0.63;0.60;;;13.80;86.70;;;;;;5099718;28;20462;-80
2021/09/19 22:24:24;;;;;;;0.60;0.60;;;13.80;86.70;;;;;;5098128;28;20134;-80
2021/09/19 22:26:50;;;;;;;0.70;0.70;;;13.80;86.80;;;;;;5097490;28;20082;-80
2021/09/19 22:29:17;;;;;;;0.75;0.60;;;13.80;86.80;;;;;;5097804;28;20043;-80
2021/09/19 22:31:43;;;;;;;0.73;0.70;;;13.70;86.70;;;;;;5081070;28;20071;-80
2021/09/19 22:34:11;;;;;;;1.00;0.70;;;13.70;86.70;;;;;;5080877;28;20051;-80
2021/09/19 22:36:37;;;;;;;0.50;0.50;;;13.60;86.60;;;;;;5063245;28;20028;-80
2021/09/19 22:39:05;;;;;;;0.60;0.60;;;13.60;86.50;;;;;;5097800;28;20078;-79
2021/09/19 22:41:31;;;;;;;0.75;0.52;;;13.60;86.50;;;;;;5115575;28;20421;-80
2021/09/19 22:43:57;;;;;;;0.68;0.60;;;13.60;86.50;;;;;;5063811;28;20043;-80
2021/09/19 22:46:23;;;;;;;0.50;0.50;;;13.60;86.50;;;;;;5097357;28;20050;-81
2021/09/19 22:48:48;;;;;;;0.63;0.60;;;13.60;86.50;;;;;;5080699;28;20130;-80
2021/09/19 22:51:16;;;;;;;0.60;0.50;;;13.50;86.50;;;;;;5080583;28;20039;-79
2021/09/19 22:53:43;;;;;;;0.82;0.60;;;13.50;86.50;;;;;;5080274;28;20054;-80
2021/09/19 22:56:09;;;;;;;0.60;0.50;;;13.50;86.50;;;;;;5115498;28;20043;-81
2021/09/19 22:58:34;;;;;;;0.82;0.80;;;13.30;86.30;;;;;;5097163;28;20039;-81
2021/09/19 23:01:04;;;;;;;0.60;0.60;;;13.40;86.40;;;;;;5063236;28;20370;-80
2021/09/19 23:03:29;;;;;;;0.60;0.60;;;13.40;86.40;;;;;;5081957;28;20074;-81
2021/09/19 23:05:55;;;;;;;1.15;0.80;;;13.30;86.40;;;;;;5079471;28;20063;-81
2021/09/19 23:08:21;;;;;;;0.63;0.52;;;13.30;86.50;;;;;;5116326;28;20040;-80
2021/09/19 23:10:47;;;;;;;0.85;0.73;;;13.30;86.50;;;;;;5063200;28;20039;-80
2021/09/19 23:13:13;;;;;;;0.85;0.73;;;13.20;86.40;;;;;;5097076;28;20070;-80
2021/09/19 23:15:41;;;;;;;0.77;0.70;;;13.30;86.50;;;;;;5097019;28;20131;-80
2021/09/19 23:18:07;;;;;;;0.65;0.65;;;13.20;86.40;;;;;;5063436;28;20064;-81
2021/09/19 23:20:33;;;;;;;0.60;0.57;;;13.20;86.40;;;;;;5096915;28;20500;-81
2021/09/19 23:22:59;;;;;;;0.70;0.70;;;13.10;86.40;;;;;;5062791;28;20040;-80
2021/09/19 23:25:25;;;;;;;0.50;0.50;;;13.10;86.40;;;;;;5079738;28;20048;-81
2021/09/19 23:27:51;;;;;;;0.70;0.70;;;13.10;86.50;;;;;;5096173;28;20049;-82
2021/09/19 23:30:17;;;;;;;1.23;0.85;;;13.10;86.50;;;;;;5114686;28;20047;-81
2021/09/19 23:32:42;;;;;;;0.90;0.68;;;13.00;86.40;;;;;;5039724;28;20136;-81
2021/09/19 23:35:09;;;;;;;1.55;0.60;;;13.00;86.40;;;;;;5038449;28;20098;-81
2021/09/19 23:37:35;;;;;;;0.90;0.65;;;13.00;86.30;;;;;;5038608;28;20036;-80
2021/09/19 23:40:03;;;;;;;0.65;0.57;;;13.10;86.40;;;;;;5038962;28;20454;-80
2021/09/19 23:42:28;;;;;;;0.75;0.60;;;13.00;86.30;;;;;;5039458;28;20040;-80
2021/09/19 23:45:04;;;;;;;0.52;0.50;;;13.00;86.30;;;;;;5055030;28;20041;-80
2021/09/19 23:47:29;;;;;;;0.60;0.60;;;13.00;86.30;;;;;;5038771;28;20045;-79
2021/09/19 23:49:55;;;;;;;0.60;0.60;;;13.00;86.20;;;;;;5037970;28;20040;-80
2021/09/19 23:52:21;;;;;;;0.68;0.50;;;13.00;86.20;;;;;;5072125;28;20543;-81
2021/09/19 23:54:46;;;;;;;1.15;0.80;;;12.90;86.20;;;;;;5040033;28;20102;-79
2021/09/19 23:57:15;;;;;;;0.60;0.60;;;12.90;86.20;;;;;;5054709;28;20122;-80
2021/09/19 23:59:45;;;;;;;0.70;0.50;;;12.90;86.20;;;;;;5016111;28;20071;-80
